createdAt,value
2023-04-11T00:01:07.551Z,99901.25
2023-04-11T00:04:11.385Z,99910.63
2023-04-11T00:07:14.494Z,99917.91
2023-04-11T00:10:16.256Z,99916.84
2023-04-11T00:13:19.648Z,99908.47
2023-04-11T00:16:21.398Z,99926.66
2023-04-11T00:19:23.417Z,99932.66
2023-04-11T00:22:27.666Z,99932.66
2023-04-11T00:25:30.330Z,99918.69
2023-04-11T00:28:32.181Z,99918.06
2023-04-11T00:31:34.858Z,99907.28
2023-04-11T00:34:36.971Z,99919.56
2023-04-11T00:37:44.182Z,99909.59
2023-04-11T00:40:46.391Z,99919.47
2023-04-11T00:43:50.613Z,99933.53
2023-04-11T00:46:53.476Z,99917.78
2023-04-11T00:49:55.505Z,99935.84
2023-04-11T00:52:59.149Z,99925.81
2023-04-11T00:56:01.101Z,99912.00
2023-04-11T00:59:03.414Z,99915.69
2023-04-11T01:02:06.279Z,99915.59
2023-04-11T01:05:09.492Z,99900.22
2023-04-11T01:08:13.645Z,99907.19
2023-04-11T01:11:19.989Z,99918.78
2023-04-11T01:14:22.853Z,99919.00
2023-04-11T01:17:25.809Z,99929.16
2023-04-11T01:20:28.650Z,99942.84
2023-04-11T01:23:34.196Z,99935.97
2023-04-11T01:26:36.615Z,99933.34
2023-04-11T01:29:38.694Z,99957.63
2023-04-11T01:32:40.983Z,99963.47
2023-04-11T01:35:43.717Z,99954.22
2023-04-11T01:38:46.898Z,99949.00
2023-04-11T01:41:50.917Z,99945.50
2023-04-11T01:44:55.391Z,99962.72
2023-04-11T01:47:57.863Z,99968.69
2023-04-11T01:50:59.763Z,99975.41
2023-04-11T01:54:02.905Z,99979.22
2023-04-11T01:57:06.762Z,99973.88
2023-04-11T02:00:12.651Z,99986.91
2023-04-11T02:03:18.871Z,99969.25
2023-04-11T02:06:20.757Z,99976.66
2023-04-11T02:09:23.873Z,99968.56
2023-04-11T02:12:27.337Z,99979.22
2023-04-11T02:15:29.284Z,99983.03
2023-04-11T02:18:32.575Z,99995.34
2023-04-11T02:21:34.468Z,99996.25
2023-04-11T02:24:38.027Z,99995.09
2023-04-11T02:27:39.698Z,100002.25
2023-04-11T02:30:41.793Z,100006.19
2023-04-11T02:33:43.777Z,99997.63
2023-04-11T02:36:45.840Z,99990.97
2023-04-11T02:39:48.989Z,99982.72
2023-04-11T02:42:51.017Z,99984.53
2023-04-11T02:46:02.002Z,99994.56
2023-04-11T02:49:12.271Z,99993.78
2023-04-11T02:52:14.232Z,99994.06
2023-04-11T02:55:17.668Z,99991.84
2023-04-11T02:58:20.342Z,99998.22
2023-04-11T03:01:23.514Z,100000.06
2023-04-11T03:04:25.368Z,99998.69
2023-04-11T03:07:34.820Z,99998.34
2023-04-11T03:10:38.272Z,100010.53
2023-04-11T03:13:43.763Z,100007.16
2023-04-11T03:16:45.797Z,100007.63
2023-04-11T03:19:49.238Z,100007.72
2023-04-11T03:22:51.195Z,99999.84
2023-04-11T03:25:56.320Z,99992.50
2023-04-11T03:28:58.980Z,99991.31
2023-04-11T03:32:05.479Z,100004.41
2023-04-11T03:35:10.374Z,99991.44
2023-04-11T03:38:15.655Z,99984.63
2023-04-11T03:41:22.009Z,99989.13
2023-04-11T03:44:25.359Z,99990.22
2023-04-11T03:47:27.215Z,99995.44
2023-04-11T03:50:30.327Z,99992.47
2023-04-11T03:53:36.330Z,99987.75
2023-04-11T03:56:53.162Z,99992.81
2023-04-11T03:59:58.780Z,99982.97
2023-04-11T04:03:00.909Z,99981.72
2023-04-11T04:06:03.173Z,100004.16
2023-04-11T04:09:05.200Z,100003.22
2023-04-11T04:12:21.580Z,99998.34
2023-04-11T04:15:42.862Z,99985.25
2023-04-11T04:18:47.257Z,99989.59
2023-04-11T04:21:49.981Z,99973.44
2023-04-11T04:24:53.319Z,99990.56
2023-04-11T04:28:00.897Z,99986.09
2023-04-11T04:31:09.494Z,99986.13
2023-04-11T04:34:21.988Z,99985.47
2023-04-11T04:37:29.073Z,99977.34
2023-04-11T04:40:40.240Z,99985.66
2023-04-11T04:43:44.417Z,99990.75
2023-04-11T04:46:53.278Z,100008.44
2023-04-11T04:49:56.560Z,100025.63
2023-04-11T04:52:58.421Z,100018.88
2023-04-11T04:56:00.689Z,99992.69
2023-04-11T04:59:08.175Z,100011.16
2023-04-11T05:02:10.764Z,100014.56
2023-04-11T05:05:13.944Z,100019.63
2023-04-11T05:08:20.507Z,100027.16
2023-04-11T05:11:23.477Z,100026.00
2023-04-11T05:14:27.904Z,100032.03
2023-04-11T05:17:30.052Z,100044.16
2023-04-11T05:20:32.667Z,100058.44
2023-04-11T05:23:35.138Z,100058.16
2023-04-11T05:27:32.939Z,100052.78
2023-04-11T05:30:36.418Z,100075.00
2023-04-11T05:33:39.259Z,100071.75
2023-04-11T05:36:42.063Z,100055.88
2023-04-11T05:39:44.011Z,100063.97
2023-04-11T05:42:47.064Z,100069.72
2023-04-11T05:45:50.569Z,100068.63
2023-04-11T05:48:52.459Z,100067.56
2023-04-11T05:51:54.321Z,100067.34
2023-04-11T05:54:56.210Z,100070.91
2023-04-11T05:57:57.954Z,100075.72
2023-04-11T06:01:01.100Z,100076.94
2023-04-11T06:04:23.099Z,100083.06
2023-04-11T06:07:27.469Z,100091.88
2023-04-11T06:10:30.606Z,100107.25
2023-04-11T06:13:32.503Z,100111.84
2023-04-11T06:16:36.968Z,100116.13
2023-04-11T06:19:39.923Z,100126.53
2023-04-11T06:22:41.862Z,100120.72
2023-04-11T06:25:43.880Z,100119.75
2023-04-11T06:28:45.937Z,100118.31
2023-04-11T06:31:49.239Z,100110.66
2023-04-11T06:34:51.056Z,100119.06
2023-04-11T06:37:52.961Z,100122.09
2023-04-11T06:40:56.296Z,100132.66
2023-04-11T06:43:58.469Z,100122.03
2023-04-11T06:47:03.321Z,100128.72
2023-04-11T06:50:06.248Z,100134.97
2023-04-11T06:53:08.031Z,100150.41
2023-04-11T06:56:10.779Z,100151.56
2023-04-11T06:59:12.455Z,100153.72
2023-04-11T07:02:15.732Z,100161.22
2023-04-11T07:05:17.779Z,100165.41
2023-04-11T07:08:19.743Z,100161.25
2023-04-11T07:11:21.983Z,100178.59
2023-04-11T07:14:23.756Z,100195.63
2023-04-11T07:17:26.940Z,100178.34
2023-04-11T07:20:28.948Z,100176.28
2023-04-11T07:23:30.645Z,100174.69
2023-04-11T07:26:32.988Z,100182.72
2023-04-11T07:29:34.824Z,100182.38
2023-04-11T07:32:37.873Z,100192.91
2023-04-11T07:35:39.618Z,100177.81
2023-04-11T07:38:41.941Z,100174.47
2023-04-11T07:41:45.067Z,100176.94
2023-04-11T07:44:46.919Z,100177.72
2023-04-11T07:47:50.260Z,100182.75
2023-04-11T07:50:52.818Z,100176.09
2023-04-11T07:53:54.752Z,100185.03
2023-04-11T07:56:57.152Z,100196.09
2023-04-11T08:00:00.062Z,100186.09
2023-04-11T08:03:05.517Z,100193.38
2023-04-11T08:06:09.311Z,100190.53
2023-04-11T08:09:11.125Z,100187.75
2023-04-11T08:12:12.930Z,100190.31
2023-04-11T08:15:14.814Z,100195.81
2023-04-11T08:18:21.409Z,100198.41
2023-04-11T08:21:25.048Z,100191.47
2023-04-11T08:24:27.116Z,100189.75
2023-04-11T08:27:28.802Z,100189.91
2023-04-11T08:30:30.754Z,100187.50
2023-04-11T08:33:33.866Z,100191.16
2023-04-11T08:36:35.705Z,100183.13
2023-04-11T08:39:37.694Z,100191.47
2023-04-11T08:42:39.386Z,100189.75
2023-04-11T08:45:41.911Z,100201.84
2023-04-11T08:48:45.977Z,100205.59
2023-04-11T08:51:49.054Z,100192.25
2023-04-11T08:54:56.278Z,100194.53
2023-04-11T08:58:03.518Z,100191.22
2023-04-11T09:01:32.959Z,100198.47
2023-04-11T09:04:43.608Z,100193.41
2023-04-11T09:07:48.397Z,100200.59
2023-04-11T09:10:49.945Z,100198.56
2023-04-11T09:14:05.896Z,100210.63
2023-04-11T09:17:16.784Z,100201.19
2023-04-11T09:20:21.023Z,100204.56
2023-04-11T09:23:25.459Z,100211.72
2023-04-11T09:26:30.389Z,100207.63
2023-04-11T09:29:38.025Z,100195.41
2023-04-11T09:32:40.027Z,100204.94
2023-04-11T09:35:43.781Z,100205.84
2023-04-11T09:38:45.632Z,100207.19
2023-04-11T09:41:47.957Z,100215.78
2023-04-11T09:44:49.749Z,100222.97
2023-04-11T09:47:53.737Z,100233.38
2023-04-11T09:50:58.888Z,100248.56
2023-04-11T09:54:03.434Z,100233.16
2023-04-11T09:57:05.993Z,100239.38
2023-04-11T10:00:17.038Z,100243.59
2023-04-11T10:03:20.927Z,100222.47
2023-04-11T10:06:34.331Z,100251.19
2023-04-11T10:09:39.626Z,100243.03
2023-04-11T10:12:42.413Z,100246.75
2023-04-11T10:16:06.126Z,100234.81
2023-04-11T10:19:23.986Z,100228.50
2023-04-11T10:23:00.791Z,100245.78
2023-04-11T10:26:02.771Z,100238.47
2023-04-11T10:29:43.481Z,100248.84
2023-04-11T10:33:09.828Z,100244.06
2023-04-11T10:36:12.369Z,100233.03
2023-04-11T10:39:15.944Z,100237.47
2023-04-11T10:42:27.372Z,100227.78
2023-04-11T10:45:30.334Z,100222.03
2023-04-11T10:48:32.080Z,100229.97
2023-04-11T10:51:34.696Z,100225.63
2023-04-11T10:54:37.966Z,100221.47
2023-04-11T10:58:03.848Z,100223.25
2023-04-11T11:01:26.147Z,100252.06
2023-04-11T11:04:34.806Z,100232.97
2023-04-11T11:07:37.770Z,100207.66
2023-04-11T11:10:42.404Z,100216.44
2023-04-11T11:13:44.928Z,100229.31
2023-04-11T11:16:46.707Z,100204.69
2023-04-11T11:19:48.680Z,100200.50
2023-04-11T11:23:01.249Z,100218.88
2023-04-11T11:26:04.810Z,100215.09
2023-04-11T11:29:06.727Z,100208.19
2023-04-11T11:32:08.536Z,100211.34
2023-04-11T11:35:13.649Z,100199.16
2023-04-11T11:38:16.802Z,100208.00
2023-04-11T11:41:20.091Z,100192.03
2023-04-11T11:44:23.837Z,100192.63
2023-04-11T11:47:27.184Z,100212.63
2023-04-11T11:50:30.690Z,100210.25
2023-04-11T11:53:32.556Z,100211.13
2023-04-11T11:56:35.970Z,100210.47
2023-04-11T11:59:38.056Z,100206.38
2023-04-11T12:02:43.075Z,100202.56
2023-04-11T12:05:45.268Z,100202.25
2023-04-11T12:09:09.842Z,100201.09
2023-04-11T12:12:16.146Z,100215.09
2023-04-11T12:15:25.992Z,100224.19
2023-04-11T12:18:28.865Z,100207.50
2023-04-11T12:21:31.426Z,100203.66
2023-04-11T12:24:33.104Z,100212.25
2023-04-11T12:27:37.788Z,100204.25
2023-04-11T12:30:39.752Z,100181.72
2023-04-11T12:33:41.681Z,100215.94
2023-04-11T12:36:43.741Z,100207.78
2023-04-11T12:39:45.653Z,100203.31
2023-04-11T12:42:56.760Z,100199.78
2023-04-11T12:46:11.495Z,100202.56
2023-04-11T12:49:13.319Z,100209.78
2023-04-11T12:52:15.632Z,100211.44
2023-04-11T12:55:17.528Z,100209.34
2023-04-11T12:58:21.061Z,100206.13
2023-04-11T13:01:23.652Z,100195.56
2023-04-11T13:04:25.606Z,100218.72
2023-04-11T13:07:27.610Z,100202.69
2023-04-11T13:10:29.712Z,100190.81
2023-04-11T13:13:33.162Z,100194.69
2023-04-11T13:16:35.048Z,100199.09
2023-04-11T13:19:38.473Z,100195.78
2023-04-11T13:22:41.593Z,100193.25
2023-04-11T13:25:43.678Z,100206.72
2023-04-11T13:28:47.119Z,100201.03
2023-04-11T13:31:49.269Z,100196.13
2023-04-11T13:34:51.322Z,100199.91
2023-04-11T13:37:53.458Z,100227.88
2023-04-11T13:40:55.720Z,100200.00
2023-04-11T13:43:59.242Z,100196.41
2023-04-11T13:47:02.787Z,100192.78
2023-04-11T13:50:06.252Z,100186.78
2023-04-11T13:53:08.347Z,100178.22
2023-04-11T13:56:11.459Z,100189.94
2023-04-11T13:59:14.574Z,100177.38
2023-04-11T14:02:16.499Z,100185.88
2023-04-11T14:05:18.779Z,100193.16
2023-04-11T14:08:20.959Z,100192.84
2023-04-11T14:11:22.781Z,100181.19
2023-04-11T14:14:25.783Z,100191.13
2023-04-11T14:17:27.554Z,100198.47
2023-04-11T14:20:30.014Z,100202.56
2023-04-11T14:23:32.104Z,100190.47
2023-04-11T14:26:33.929Z,100180.13
2023-04-11T14:29:37.652Z,100184.94
2023-04-11T14:32:40.686Z,100183.19
2023-04-11T14:35:46.952Z,100179.97
2023-04-11T14:38:49.108Z,100169.88
2023-04-11T14:41:51.060Z,100175.88
2023-04-11T14:44:54.379Z,100171.81
2023-04-11T14:47:56.742Z,100179.31
2023-04-11T14:51:02.650Z,100176.31
2023-04-11T14:54:04.623Z,100180.66
2023-04-11T14:57:06.624Z,100186.03
2023-04-11T15:00:17.892Z,100193.19
2023-04-11T15:03:20.173Z,100192.59
2023-04-11T15:06:22.417Z,100204.81
2023-04-11T15:09:24.248Z,100203.66
2023-04-11T15:12:26.154Z,100180.69
2023-04-11T15:15:29.735Z,100175.59
2023-04-11T15:18:32.811Z,100165.84
2023-04-11T15:21:34.511Z,100162.41
2023-04-11T15:24:36.236Z,100157.47
2023-04-11T15:27:38.193Z,100150.78
2023-04-11T15:30:49.648Z,100151.78
2023-04-11T15:33:52.234Z,100156.97
2023-04-11T15:36:53.973Z,100154.47
2023-04-11T15:39:57.747Z,100164.22
2023-04-11T15:42:59.627Z,100158.97
2023-04-11T15:46:06.718Z,100164.66
2023-04-11T15:49:08.679Z,100154.75
2023-04-11T15:52:11.855Z,100158.59
2023-04-11T15:55:14.076Z,100152.69
2023-04-11T15:58:16.325Z,100151.84
2023-04-11T16:01:23.042Z,100146.03
2023-04-11T16:04:25.823Z,100152.88
2023-04-11T16:07:27.660Z,100151.81
2023-04-11T16:10:32.450Z,100151.16
2023-04-11T16:13:34.550Z,100146.84
2023-04-11T16:16:37.948Z,100143.47
2023-04-11T16:19:39.894Z,100152.66
2023-04-11T16:22:41.573Z,100149.00
2023-04-11T16:25:44.908Z,100153.31
2023-04-11T16:28:49.462Z,100136.25
2023-04-11T16:31:52.589Z,100142.78
2023-04-11T16:34:55.130Z,100146.41
2023-04-11T16:37:57.100Z,100147.75
2023-04-11T16:41:00.231Z,100140.59
2023-04-11T16:44:02.849Z,100137.59
2023-04-11T16:47:06.022Z,100141.97
2023-04-11T16:50:09.335Z,100146.47
2023-04-11T16:53:11.035Z,100139.78
2023-04-11T16:56:12.908Z,100141.47
2023-04-11T16:59:16.003Z,100130.38
2023-04-11T17:02:19.106Z,100133.63
2023-04-11T17:05:23.849Z,100112.63
2023-04-11T17:08:26.469Z,100119.50
2023-04-11T17:11:28.423Z,100116.00
2023-04-11T17:14:30.950Z,100112.22
2023-04-11T17:17:34.200Z,100101.78
2023-04-11T17:20:37.186Z,100109.97
2023-04-11T17:23:43.014Z,100108.41
2023-04-11T17:26:45.654Z,100112.66
2023-04-11T17:29:47.545Z,100112.47
2023-04-11T17:32:50.992Z,100109.16
2023-04-11T17:35:52.847Z,100110.19
2023-04-11T17:38:54.862Z,100113.56
2023-04-11T17:41:57.415Z,100114.97
2023-04-11T17:45:10.057Z,100117.44
2023-04-11T17:48:20.400Z,100114.75
2023-04-11T17:51:22.368Z,100117.72
2023-04-11T17:54:25.666Z,100115.28
2023-04-11T17:57:27.691Z,100108.28
2023-04-11T18:00:31.948Z,100113.03
2023-04-11T18:03:37.127Z,100112.75
2023-04-11T18:06:39.081Z,100117.34
2023-04-11T18:09:42.383Z,100112.19
2023-04-11T18:12:48.224Z,100115.13
2023-04-11T18:15:50.083Z,100115.41
2023-04-11T18:18:56.945Z,100115.81
2023-04-11T18:21:58.838Z,100110.66
2023-04-11T18:25:03.290Z,100119.56
2023-04-11T18:28:05.117Z,100117.50
2023-04-11T18:31:07.277Z,100118.81
2023-04-11T18:34:10.860Z,100124.25
2023-04-11T18:37:12.935Z,100117.91
2023-04-11T18:40:15.789Z,100112.53
2023-04-11T18:43:17.884Z,100117.16
2023-04-11T18:46:19.821Z,100107.06
2023-04-11T18:49:24.194Z,100100.75
2023-04-11T18:52:28.077Z,100094.72
2023-04-11T18:55:30.835Z,100103.84
2023-04-11T18:58:34.287Z,100107.41
2023-04-11T19:01:36.573Z,100112.09
2023-04-11T19:04:44.060Z,100110.47
2023-04-11T19:07:46.034Z,100115.06
2023-04-11T19:10:48.166Z,100108.66
2023-04-11T19:13:54.201Z,100106.97
2023-04-11T19:16:56.676Z,100104.31
2023-04-11T19:20:01.774Z,100099.34
2023-04-11T19:23:03.581Z,100099.34
2023-04-11T19:26:06.202Z,100089.97
2023-04-11T19:29:07.931Z,100092.69
2023-04-11T19:32:09.940Z,100095.25
2023-04-11T19:35:14.195Z,100086.66
2023-04-11T19:38:16.015Z,100088.38
2023-04-11T19:41:19.708Z,100089.88
2023-04-11T19:44:21.657Z,100091.22
2023-04-11T19:47:23.740Z,100094.94
2023-04-11T19:50:27.089Z,100076.31
2023-04-11T19:53:28.875Z,100068.56
2023-04-11T19:56:30.982Z,100059.41
2023-04-11T19:59:33.463Z,100056.81
2023-04-11T20:02:36.622Z,100068.41
2023-04-11T20:05:40.526Z,100049.91
2023-04-11T20:08:44.972Z,100059.56
2023-04-11T20:11:47.685Z,100055.84
2023-04-11T20:14:49.434Z,100050.44
2023-04-11T20:17:51.540Z,100046.47
2023-04-11T20:20:54.973Z,100053.69
2023-04-11T20:23:57.972Z,100045.03
2023-04-11T20:26:59.768Z,100038.22
2023-04-11T20:30:01.986Z,100031.91
2023-04-11T20:33:04.133Z,100026.84
2023-04-11T20:36:09.044Z,100026.59
2023-04-11T20:39:10.746Z,100016.78
2023-04-11T20:42:12.702Z,100014.03
2023-04-11T20:45:16.937Z,100016.84
2023-04-11T20:48:19.823Z,100014.53
2023-04-11T20:51:23.785Z,100000.78
2023-04-11T20:54:26.389Z,99997.94
2023-04-11T20:57:30.059Z,99987.81
2023-04-11T21:00:32.189Z,99992.81
2023-04-11T21:03:37.308Z,99982.31
2023-04-11T21:06:41.107Z,99975.91
2023-04-11T21:09:42.781Z,99975.59
2023-04-11T21:12:51.544Z,99975.63
2023-04-11T21:15:55.646Z,99970.13
2023-04-11T21:18:57.300Z,99969.03
2023-04-11T21:22:00.767Z,99955.25
2023-04-11T21:25:03.986Z,99950.66
2023-04-11T21:28:05.930Z,99948.69
2023-04-11T21:31:08.133Z,99948.03
2023-04-11T21:34:09.940Z,99939.19
2023-04-11T21:37:13.005Z,99938.97
2023-04-11T21:40:14.992Z,99931.44
2023-04-11T21:43:16.999Z,99926.28
2023-04-11T21:46:19.022Z,99924.00
2023-04-11T21:49:20.989Z,99915.03
2023-04-11T21:52:24.106Z,99925.03
2023-04-11T21:55:26.007Z,99908.59
2023-04-11T21:58:29.927Z,99907.13
2023-04-11T22:01:32.113Z,99900.63
2023-04-11T22:04:39.189Z,99898.84
2023-04-11T22:07:47.621Z,99885.59
2023-04-11T22:10:50.753Z,99889.13
2023-04-11T22:13:52.744Z,99884.41
2023-04-11T22:16:58.856Z,99891.38
2023-04-11T22:20:00.750Z,99891.28
2023-04-11T22:23:06.065Z,99880.09
2023-04-11T22:26:07.761Z,99876.69
2023-04-11T22:29:12.068Z,99871.13
2023-04-11T22:32:13.928Z,99863.00
2023-04-11T22:35:18.450Z,99853.31
2023-04-11T22:38:21.627Z,99852.94
2023-04-11T22:41:24.132Z,99848.84
2023-04-11T22:44:25.838Z,99857.38
2023-04-11T22:47:29.097Z,99842.41
2023-04-11T22:50:32.214Z,99842.41
2023-04-11T22:53:44.511Z,99832.28
2023-04-11T22:56:48.553Z,99827.69
2023-04-11T22:59:50.528Z,99822.97
2023-04-11T23:02:52.835Z,99823.63
2023-04-11T23:05:54.682Z,99814.69
2023-04-11T23:08:57.868Z,99807.34
2023-04-11T23:11:59.709Z,99806.94
2023-04-11T23:15:08.683Z,99806.28
2023-04-11T23:18:10.314Z,99802.72
2023-04-11T23:21:15.456Z,99792.44
2023-04-11T23:24:19.081Z,99790.06
2023-04-11T23:27:21.898Z,99784.94
2023-04-11T23:30:23.991Z,99781.41
2023-04-11T23:33:26.779Z,99780.94
2023-04-11T23:36:29.063Z,99769.00
2023-04-11T23:39:32.760Z,99778.84
2023-04-11T23:42:34.519Z,99770.19
2023-04-11T23:45:36.606Z,99765.19
2023-04-11T23:48:38.496Z,99749.41
2023-04-11T23:51:40.393Z,99748.75
2023-04-11T23:54:43.584Z,99747.72
2023-04-11T23:57:45.316Z,99745.50
